createdAt,value
2018-09-17T00:00:35.714Z,8.03
2018-09-17T00:03:04.531Z,6.60
2018-09-17T00:05:33.426Z,7.40
2018-09-17T00:08:02.373Z,7.60
2018-09-17T00:10:31.186Z,7.83
2018-09-17T00:12:59.992Z,7.70
2018-09-17T00:15:28.806Z,8.20
2018-09-17T00:17:57.654Z,7.67
2018-09-17T00:20:26.424Z,7.50
2018-09-17T00:22:55.290Z,7.33
2018-09-17T00:25:24.075Z,6.70
2018-09-17T00:27:52.862Z,7.83
2018-09-17T00:30:21.703Z,7.67
2018-09-17T00:32:50.544Z,7.97
2018-09-17T00:35:19.395Z,8.20
2018-09-17T00:37:48.215Z,7.33
2018-09-17T00:40:17.294Z,7.97
2018-09-17T00:42:46.116Z,7.50
2018-09-17T00:45:15.051Z,7.40
2018-09-17T00:47:43.863Z,7.30
2018-09-17T00:50:12.743Z,6.67
2018-09-17T00:52:41.552Z,7.20
2018-09-17T00:55:10.394Z,6.40
2018-09-17T00:57:39.318Z,7.63
2018-09-17T01:00:08.139Z,6.87
2018-09-17T01:02:37.048Z,6.97
2018-09-17T01:05:06.100Z,7.30
2018-09-17T01:07:34.902Z,7.93
2018-09-17T01:10:03.923Z,6.83
2018-09-17T01:12:32.691Z,7.37
2018-09-17T01:15:01.505Z,6.97
2018-09-17T01:17:30.298Z,7.07
2018-09-17T01:19:59.154Z,7.30
2018-09-17T01:22:28.047Z,6.57
2018-09-17T01:24:56.851Z,6.07
2018-09-17T01:27:25.652Z,6.67
2018-09-17T01:29:54.492Z,7.00
2018-09-17T01:32:23.302Z,7.63
2018-09-17T01:34:52.168Z,7.50
2018-09-17T01:37:20.978Z,7.20
2018-09-17T01:39:49.814Z,7.17
2018-09-17T01:42:18.695Z,7.37
2018-09-17T01:44:47.485Z,7.57
2018-09-17T01:47:16.271Z,7.73
2018-09-17T01:49:45.115Z,7.70
2018-09-17T01:52:13.915Z,7.73
2018-09-17T01:54:42.771Z,6.63
2018-09-17T01:57:11.579Z,7.50
2018-09-17T01:59:40.434Z,7.57
2018-09-17T02:02:09.716Z,7.50
2018-09-17T02:04:38.968Z,7.23
2018-09-17T02:07:08.171Z,8.30
2018-09-17T02:09:39.614Z,6.67
2018-09-17T02:12:12.582Z,7.70
2018-09-17T02:14:42.003Z,7.20
2018-09-17T02:17:10.817Z,6.73
2018-09-17T02:19:39.642Z,7.17
2018-09-17T02:22:09.305Z,8.20
2018-09-17T02:24:38.358Z,7.17
2018-09-17T02:27:07.172Z,7.30
2018-09-17T02:29:36.042Z,6.73
2018-09-17T02:32:04.839Z,7.13
2018-09-17T02:34:33.656Z,6.87
2018-09-17T02:37:02.452Z,7.07
2018-09-17T02:39:31.351Z,7.60
2018-09-17T02:42:00.152Z,7.30
2018-09-17T02:44:28.935Z,7.10
2018-09-17T02:46:57.739Z,7.83
2018-09-17T02:49:26.535Z,6.17
2018-09-17T02:51:55.470Z,6.77
2018-09-17T02:54:24.271Z,7.23
2018-09-17T02:56:53.062Z,7.00
2018-09-17T02:59:24.067Z,8.07
2018-09-17T03:01:52.843Z,7.47
2018-09-17T03:04:21.775Z,8.77
2018-09-17T03:06:50.550Z,6.53
2018-09-17T03:09:19.367Z,8.30
2018-09-17T03:11:48.351Z,8.37
2018-09-17T03:14:30.017Z,7.90
2018-09-17T03:17:15.344Z,7.77
2018-09-17T03:19:45.007Z,7.13
2018-09-17T03:22:14.503Z,7.60
2018-09-17T03:24:43.380Z,7.70
2018-09-17T03:27:12.153Z,7.03
2018-09-17T03:29:41.115Z,7.40
2018-09-17T03:32:09.928Z,8.70
2018-09-17T03:34:38.730Z,7.20
2018-09-17T03:37:07.572Z,6.47
2018-09-17T03:39:36.379Z,7.53
2018-09-17T03:42:06.487Z,7.20
2018-09-17T03:44:35.310Z,8.00
2018-09-17T03:47:04.114Z,7.30
2018-09-17T03:49:32.922Z,7.30
2018-09-17T03:52:01.723Z,7.63
2018-09-17T03:54:30.627Z,7.13
2018-09-17T03:56:59.414Z,7.83
2018-09-17T03:59:28.999Z,6.93
2018-09-17T04:01:57.815Z,8.23
2018-09-17T04:04:26.617Z,8.47
2018-09-17T04:06:55.548Z,7.80
2018-09-17T04:09:24.335Z,6.97
2018-09-17T04:11:53.095Z,7.30
2018-09-17T04:14:21.946Z,7.03
2018-09-17T04:16:50.743Z,7.83
2018-09-17T04:19:19.558Z,6.80
2018-09-17T04:21:48.349Z,7.90
2018-09-17T04:24:17.258Z,8.33
2018-09-17T04:26:46.077Z,7.60
2018-09-17T04:29:14.948Z,7.07
2018-09-17T04:31:43.900Z,8.10
2018-09-17T04:34:12.669Z,8.70
2018-09-17T04:36:41.574Z,7.30
2018-09-17T04:39:12.347Z,7.80
2018-09-17T04:41:41.318Z,6.87
2018-09-17T04:44:10.135Z,8.07
2018-09-17T04:46:38.955Z,9.17
2018-09-17T04:49:07.756Z,7.33
2018-09-17T04:51:36.550Z,8.67
2018-09-17T04:54:05.339Z,8.07
2018-09-17T04:56:34.137Z,7.23
2018-09-17T04:59:03.063Z,7.90
2018-09-17T05:01:31.871Z,8.30
2018-09-17T05:04:00.683Z,8.10
2018-09-17T05:06:29.501Z,8.67
2018-09-17T05:08:58.283Z,8.70
2018-09-17T05:11:27.206Z,9.00
2018-09-17T05:13:56.011Z,9.70
2018-09-17T05:16:24.822Z,9.27
2018-09-17T05:18:53.606Z,9.50
2018-09-17T05:21:22.386Z,9.37
2018-09-17T05:23:51.307Z,9.70
2018-09-17T05:26:20.114Z,9.10
2018-09-17T05:28:48.919Z,9.33
2018-09-17T05:31:17.711Z,10.77
2018-09-17T05:33:46.675Z,9.20
2018-09-17T05:36:15.462Z,9.37
2018-09-17T05:38:44.277Z,8.80
2018-09-17T05:41:13.090Z,9.83
2018-09-17T05:43:41.910Z,8.20
2018-09-17T05:46:10.711Z,8.93
2018-09-17T05:48:39.514Z,8.33
2018-09-17T05:51:08.310Z,9.50
2018-09-17T05:53:37.218Z,8.93
2018-09-17T05:56:06.073Z,8.50
2018-09-17T05:58:34.885Z,10.20
2018-09-17T06:01:03.724Z,10.23
2018-09-17T06:03:32.540Z,9.90
2018-09-17T06:06:01.409Z,10.63
2018-09-17T06:08:30.167Z,10.40
2018-09-17T06:10:59.070Z,11.63
2018-09-17T06:13:27.843Z,11.73
2018-09-17T06:15:56.660Z,10.47
2018-09-17T06:18:25.459Z,10.27
2018-09-17T06:20:54.511Z,10.03
2018-09-17T06:23:23.339Z,10.20
2018-09-17T06:25:52.107Z,10.50
2018-09-17T06:28:20.912Z,10.13
2018-09-17T06:30:49.739Z,9.33
2018-09-17T06:33:18.568Z,10.80
2018-09-17T06:35:47.390Z,9.10
2018-09-17T06:38:16.287Z,10.77
2018-09-17T06:40:45.091Z,11.20
2018-09-17T06:43:13.906Z,9.93
2018-09-17T06:45:42.719Z,10.40
2018-09-17T06:48:11.489Z,10.10
2018-09-17T06:50:40.422Z,10.67
2018-09-17T06:53:09.218Z,10.53
2018-09-17T06:55:38.022Z,11.10
2018-09-17T06:58:06.917Z,10.13
2018-09-17T07:00:35.710Z,10.40
2018-09-17T07:03:04.603Z,9.70
2018-09-17T07:05:33.381Z,9.60
2018-09-17T07:08:02.162Z,10.30
2018-09-17T07:10:30.979Z,10.37
2018-09-17T07:12:59.758Z,10.53
2018-09-17T07:15:28.583Z,10.00
2018-09-17T07:17:57.378Z,9.93
2018-09-17T07:20:26.206Z,9.60
2018-09-17T07:22:54.991Z,10.87
2018-09-17T07:25:23.871Z,10.77
2018-09-17T07:27:52.674Z,10.57
2018-09-17T07:30:21.457Z,10.90
2018-09-17T07:32:50.256Z,10.83
2018-09-17T07:35:19.071Z,11.10
2018-09-17T07:37:47.867Z,10.10
2018-09-17T07:40:16.679Z,9.90
2018-09-17T07:42:45.499Z,11.20
2018-09-17T07:45:14.329Z,9.73
2018-09-17T07:47:43.175Z,11.30
2018-09-17T07:50:11.975Z,10.10
2018-09-17T07:52:40.783Z,11.00
2018-09-17T07:55:09.596Z,10.73
2018-09-17T07:57:38.451Z,10.50
2018-09-17T08:00:07.354Z,10.43
2018-09-17T08:02:36.170Z,11.07
2018-09-17T08:05:05.067Z,12.10
2018-09-17T08:07:33.842Z,9.73
2018-09-17T08:10:02.773Z,9.67
2018-09-17T08:12:31.575Z,10.40
2018-09-17T08:15:00.391Z,10.40
2018-09-17T08:17:29.323Z,9.70
2018-09-17T08:19:58.114Z,10.50
2018-09-17T08:22:27.004Z,11.73
2018-09-17T08:24:55.828Z,11.07
2018-09-17T08:27:24.648Z,11.70
2018-09-17T08:29:53.460Z,10.90
2018-09-17T08:32:22.324Z,11.07
2018-09-17T08:34:51.127Z,10.67
2018-09-17T08:37:19.932Z,9.70
2018-09-17T08:39:48.771Z,10.70
2018-09-17T08:42:17.593Z,9.93
2018-09-17T08:44:46.450Z,11.50
2018-09-17T08:47:15.226Z,10.00
2018-09-17T08:49:44.007Z,10.20
2018-09-17T08:52:12.914Z,9.43
2018-09-17T08:54:47.290Z,10.90
2018-09-17T08:57:21.691Z,9.53
2018-09-17T08:59:56.175Z,9.40
2018-09-17T09:02:30.507Z,10.23
2018-09-17T09:05:05.004Z,9.87
2018-09-17T09:07:40.386Z,10.90
2018-09-17T09:10:14.867Z,9.60
2018-09-17T09:12:48.222Z,10.67
2018-09-17T09:15:18.050Z,11.00
2018-09-17T09:17:46.835Z,10.47
2018-09-17T09:20:15.656Z,8.60
2018-09-17T09:22:44.439Z,10.43
2018-09-17T09:25:13.252Z,9.50
2018-09-17T09:27:42.043Z,10.67
2018-09-17T09:30:10.828Z,10.40
2018-09-17T09:32:39.647Z,12.00
2018-09-17T09:35:08.448Z,11.13
2018-09-17T09:37:37.238Z,10.50
2018-09-17T09:40:06.114Z,11.40
2018-09-17T09:42:34.919Z,9.73
2018-09-17T09:45:03.795Z,10.77
2018-09-17T09:47:32.595Z,10.63
2018-09-17T09:50:01.387Z,10.93
2018-09-17T09:52:30.182Z,10.50
2018-09-17T09:54:58.990Z,9.43
2018-09-17T09:57:27.781Z,9.50
2018-09-17T09:59:56.578Z,10.07
2018-09-17T10:02:30.962Z,9.33
2018-09-17T10:04:59.793Z,10.77
2018-09-17T10:07:28.623Z,10.60
2018-09-17T10:10:02.955Z,9.53
2018-09-17T10:12:37.370Z,9.50
2018-09-17T10:15:11.946Z,11.00
2018-09-17T10:17:46.334Z,11.00
2018-09-17T10:20:15.256Z,11.30
2018-09-17T10:22:44.071Z,9.70
2018-09-17T10:25:12.890Z,11.00
2018-09-17T10:27:41.690Z,9.80
2018-09-17T10:30:10.495Z,8.90
2018-09-17T10:32:39.410Z,10.10
2018-09-17T10:36:11.475Z,10.07
2018-09-17T10:38:40.353Z,8.60
2018-09-17T10:41:09.137Z,8.63
2018-09-17T10:43:37.915Z,9.30
2018-09-17T10:46:06.726Z,11.53
2018-09-17T10:48:35.506Z,9.80
2018-09-17T10:51:04.358Z,9.30
2018-09-17T10:53:33.183Z,9.33
2018-09-17T10:56:02.003Z,10.30
2018-09-17T10:58:30.883Z,9.03
2018-09-17T11:01:00.623Z,8.83
2018-09-17T11:03:29.431Z,9.67
2018-09-17T11:05:58.250Z,8.90
2018-09-17T11:08:27.416Z,8.07
2018-09-17T11:10:56.216Z,8.90
2018-09-17T11:13:25.010Z,9.83
2018-09-17T11:15:53.854Z,8.47
2018-09-17T11:18:22.661Z,8.73
2018-09-17T11:20:51.469Z,8.90
2018-09-17T11:23:20.307Z,8.90
2018-09-17T11:25:49.124Z,7.90
2018-09-17T11:28:17.918Z,9.03
2018-09-17T11:30:46.727Z,9.97
2018-09-17T11:33:15.533Z,8.63
2018-09-17T11:35:44.362Z,8.63
2018-09-17T11:38:13.147Z,9.67
2018-09-17T11:40:42.006Z,8.80
2018-09-17T11:43:10.794Z,7.60
2018-09-17T11:45:39.610Z,8.60
2018-09-17T11:48:08.436Z,8.90
2018-09-17T11:50:37.230Z,8.73
2018-09-17T11:53:06.105Z,9.53
2018-09-17T11:55:34.927Z,8.60
2018-09-17T11:58:03.763Z,9.10
2018-09-17T12:00:38.986Z,8.90
2018-09-17T12:03:13.479Z,8.70
2018-09-17T12:05:47.882Z,9.87
2018-09-17T12:08:17.786Z,9.30
2018-09-17T12:10:46.594Z,9.73
2018-09-17T12:13:15.400Z,10.00
2018-09-17T12:15:44.495Z,10.70
2018-09-17T12:18:13.902Z,10.30
2018-09-17T12:20:42.702Z,9.67
2018-09-17T12:23:11.558Z,9.50
2018-09-17T12:25:40.383Z,9.20
2018-09-17T12:28:09.183Z,9.60
2018-09-17T12:30:38.999Z,10.10
2018-09-17T12:33:07.853Z,10.07
2018-09-17T12:35:36.668Z,11.00
2018-09-17T12:38:05.619Z,9.33
2018-09-17T12:40:34.415Z,9.50
2018-09-17T12:43:03.291Z,9.90
2018-09-17T12:45:32.101Z,10.33
2018-09-17T12:48:00.927Z,9.30
2018-09-17T12:50:29.759Z,9.97
2018-09-17T12:52:58.563Z,10.50
2018-09-17T12:55:27.427Z,11.67
2018-09-17T12:57:56.235Z,10.47
2018-09-17T13:00:31.475Z,10.77
2018-09-17T13:03:00.270Z,10.70
2018-09-17T13:05:29.061Z,11.00
2018-09-17T13:07:57.942Z,11.60
2018-09-17T13:10:26.767Z,11.63
2018-09-17T13:12:55.581Z,10.80
2018-09-17T13:15:24.510Z,11.20
2018-09-17T13:17:53.336Z,10.33
2018-09-17T13:20:22.134Z,11.37
2018-09-17T13:22:50.958Z,10.00
2018-09-17T13:25:19.772Z,9.60
2018-09-17T13:27:48.638Z,11.20
2018-09-17T13:30:17.422Z,11.33
2018-09-17T13:32:46.251Z,10.50
2018-09-17T13:35:15.056Z,9.97
2018-09-17T13:37:43.839Z,10.17
2018-09-17T13:40:12.787Z,10.40
2018-09-17T13:42:41.610Z,10.10
2018-09-17T13:45:10.478Z,10.27
2018-09-17T13:47:39.315Z,9.63
2018-09-17T13:50:09.031Z,10.47
2018-09-17T13:52:37.875Z,10.87
2018-09-17T13:55:06.774Z,10.20
2018-09-17T13:57:35.584Z,10.77
2018-09-17T14:00:04.762Z,11.37
2018-09-17T14:02:33.597Z,11.57
2018-09-17T14:05:02.522Z,11.07
2018-09-17T14:07:31.334Z,10.10
2018-09-17T14:10:00.252Z,9.97
2018-09-17T14:12:29.023Z,9.60
2018-09-17T14:14:57.848Z,12.30
2018-09-17T14:17:26.698Z,11.13
2018-09-17T14:19:55.506Z,9.50
2018-09-17T14:22:24.362Z,10.60
2018-09-17T14:24:53.206Z,10.00
2018-09-17T14:27:22.203Z,10.63
2018-09-17T14:29:51.033Z,10.87
2018-09-17T14:32:25.335Z,11.00
2018-09-17T14:34:54.126Z,10.87
2018-09-17T14:37:22.923Z,11.10
2018-09-17T14:39:51.766Z,9.90
2018-09-17T14:42:20.548Z,10.57
2018-09-17T14:44:49.335Z,10.13
2018-09-17T14:47:18.162Z,10.93
2018-09-17T14:49:47.026Z,10.80
2018-09-17T14:52:16.669Z,10.93
2018-09-17T14:54:45.615Z,12.03
2018-09-17T14:57:14.369Z,10.20
2018-09-17T14:59:43.797Z,10.43
2018-09-17T15:02:12.938Z,11.33
2018-09-17T15:04:42.119Z,10.80
2018-09-17T15:07:11.115Z,10.83
2018-09-17T15:09:42.891Z,10.77
2018-09-17T15:12:11.753Z,10.83
2018-09-17T15:14:41.226Z,10.60
2018-09-17T15:17:10.249Z,9.90
2018-09-17T15:19:39.156Z,11.30
2018-09-17T15:22:07.974Z,10.57
2018-09-17T15:24:39.687Z,11.43
2018-09-17T15:27:08.531Z,10.63
2018-09-17T15:29:37.467Z,11.13
2018-09-17T15:32:06.427Z,9.10
2018-09-17T15:34:35.231Z,10.37
2018-09-17T15:37:04.094Z,9.60
2018-09-17T15:39:33.133Z,9.90
2018-09-17T15:42:02.052Z,10.17
2018-09-17T15:44:31.336Z,9.80
2018-09-17T15:47:00.381Z,10.40
2018-09-17T15:49:29.240Z,10.40
2018-09-17T15:51:58.196Z,10.40
2018-09-17T15:54:27.043Z,10.50
2018-09-17T15:56:55.867Z,11.23
2018-09-17T15:59:27.696Z,11.03
2018-09-17T16:01:56.634Z,10.73
2018-09-17T16:04:25.448Z,10.97
2018-09-17T16:06:54.308Z,10.63
2018-09-17T16:09:23.171Z,8.67
2018-09-17T16:11:52.335Z,10.50
2018-09-17T16:14:21.650Z,10.47
2018-09-17T16:17:02.511Z,10.20
2018-09-17T16:19:31.342Z,11.30
2018-09-17T16:22:00.167Z,10.13
2018-09-17T16:24:29.351Z,10.40
2018-09-17T16:26:58.157Z,10.73
2018-09-17T16:29:27.363Z,10.93
2018-09-17T16:31:56.271Z,10.90
2018-09-17T16:34:25.070Z,10.37
2018-09-17T16:36:53.865Z,10.53
2018-09-17T16:39:22.710Z,9.93
2018-09-17T16:41:51.563Z,11.10
2018-09-17T16:44:20.497Z,11.27
2018-09-17T16:46:49.372Z,10.47
2018-09-17T16:49:18.178Z,10.37
2018-09-17T16:51:47.025Z,9.90
2018-09-17T16:54:15.883Z,11.07
2018-09-17T16:56:44.889Z,11.47
2018-09-17T16:59:14.898Z,10.67
2018-09-17T17:01:45.767Z,11.17
2018-09-17T17:04:14.602Z,11.30
2018-09-17T17:06:43.695Z,11.60
2018-09-17T17:09:12.568Z,10.83
2018-09-17T17:11:41.436Z,11.33
2018-09-17T17:14:10.290Z,11.97
2018-09-17T17:16:39.224Z,11.17
2018-09-17T17:19:08.305Z,10.30
2018-09-17T17:21:37.091Z,11.20
2018-09-17T17:24:05.994Z,11.70
2018-09-17T17:26:34.822Z,11.00
2018-09-17T17:29:03.743Z,11.03
2018-09-17T17:31:32.587Z,11.13
2018-09-17T17:34:01.495Z,10.97
2018-09-17T17:36:30.381Z,11.97
2018-09-17T17:38:59.221Z,11.53
2018-09-17T17:41:29.024Z,11.17
2018-09-17T17:43:57.970Z,11.13
2018-09-17T17:46:26.827Z,11.93
2018-09-17T17:48:56.242Z,12.40
2018-09-17T17:51:25.134Z,11.60
2018-09-17T17:53:53.935Z,11.30
2018-09-17T17:56:22.932Z,12.00
2018-09-17T17:58:51.786Z,9.97
2018-09-17T18:01:20.826Z,10.70
2018-09-17T18:03:49.565Z,12.40
2018-09-17T18:06:18.462Z,12.00
2018-09-17T18:08:47.298Z,12.10
2018-09-17T18:11:16.858Z,11.50
2018-09-17T18:13:45.805Z,11.50
2018-09-17T18:16:14.642Z,11.23
2018-09-17T18:18:43.489Z,11.70
2018-09-17T18:21:12.430Z,12.60
2018-09-17T18:23:41.596Z,11.60
2018-09-17T18:26:10.515Z,12.20
2018-09-17T18:28:39.365Z,10.77
2018-09-17T18:31:08.166Z,11.17
2018-09-17T18:33:37.052Z,11.70
2018-09-17T18:36:06.004Z,12.53
2018-09-17T18:38:34.851Z,12.10
2018-09-17T18:41:04.913Z,12.00
2018-09-17T18:43:34.746Z,12.13
2018-09-17T18:46:03.591Z,12.20
2018-09-17T18:48:32.430Z,12.07
2018-09-17T18:51:01.304Z,12.53
2018-09-17T18:53:30.119Z,11.87
2018-09-17T18:55:59.083Z,11.53
2018-09-17T18:58:27.987Z,13.43
2018-09-17T19:00:56.898Z,11.57
2018-09-17T19:03:26.433Z,11.43
2018-09-17T19:05:55.908Z,11.53
2018-09-17T19:08:24.707Z,13.17
2018-09-17T19:10:53.575Z,12.27
2018-09-17T19:13:22.400Z,12.80
2018-09-17T19:15:53.911Z,12.10
2018-09-17T19:18:22.832Z,13.10
2018-09-17T19:20:52.094Z,13.10
2018-09-17T19:23:26.317Z,13.10
2018-09-17T19:25:55.430Z,12.23
2018-09-17T19:28:29.804Z,12.67
2018-09-17T19:30:58.927Z,11.70
2018-09-17T19:33:27.800Z,13.27
2018-09-17T19:35:56.802Z,12.30
2018-09-17T19:38:31.259Z,12.40
2018-09-17T19:41:00.959Z,12.87
2018-09-17T19:43:29.787Z,12.47
2018-09-17T19:46:04.393Z,12.83
2018-09-17T19:48:33.238Z,12.50
2018-09-17T19:51:07.631Z,12.97
2018-09-17T19:53:36.488Z,12.30
2018-09-17T19:56:05.517Z,12.70
2018-09-17T19:58:39.959Z,14.30
2018-09-17T20:01:08.852Z,11.70
2018-09-17T20:03:37.719Z,12.40
2018-09-17T20:06:12.172Z,11.97
2018-09-17T20:08:40.995Z,13.03
2018-09-17T20:11:09.910Z,13.40
2018-09-17T20:13:39.028Z,13.90
2018-09-17T20:16:07.904Z,13.53
2018-09-17T20:18:37.346Z,13.50
2018-09-17T20:21:06.845Z,12.93
2018-09-17T20:23:35.702Z,12.80
2018-09-17T20:26:04.610Z,12.90
2018-09-17T20:28:33.415Z,13.00
2018-09-17T20:31:02.282Z,13.13
2018-09-17T20:33:33.814Z,13.37
2018-09-17T20:36:02.752Z,12.63
2018-09-17T20:38:31.613Z,12.93
2018-09-17T20:41:00.443Z,14.13
2018-09-17T20:43:29.263Z,13.57
2018-09-17T20:45:58.158Z,14.33
2018-09-17T20:48:26.951Z,13.30
2018-09-17T20:50:55.878Z,13.47
2018-09-17T20:53:24.762Z,13.37
2018-09-17T20:55:53.565Z,14.57
2018-09-17T20:58:22.409Z,14.17
2018-09-17T21:00:51.239Z,13.90
2018-09-17T21:03:20.036Z,14.40
2018-09-17T21:05:48.856Z,13.50
2018-09-17T21:08:18.388Z,13.80
2018-09-17T21:10:48.432Z,12.93
2018-09-17T21:13:18.023Z,14.47
2018-09-17T21:15:47.934Z,14.60
2018-09-17T21:18:17.142Z,13.07
2018-09-17T21:20:45.987Z,14.50
2018-09-17T21:23:15.380Z,13.30
2018-09-17T21:25:44.287Z,14.17
2018-09-17T21:28:13.090Z,13.60
2018-09-17T21:30:41.990Z,14.43
2018-09-17T21:33:10.782Z,14.80
2018-09-17T21:35:39.654Z,13.83
2018-09-17T21:38:08.549Z,12.90
2018-09-17T21:40:37.373Z,13.50
2018-09-17T21:43:06.247Z,13.40
2018-09-17T21:45:35.146Z,12.90
2018-09-17T21:48:03.967Z,12.70
2018-09-17T21:50:32.796Z,13.33
2018-09-17T21:53:01.630Z,13.37
2018-09-17T21:55:30.462Z,14.53
2018-09-17T21:57:59.275Z,12.87
2018-09-17T22:00:38.334Z,13.63
2018-09-17T22:03:07.147Z,14.27
2018-09-17T22:05:35.967Z,14.33
2018-09-17T22:08:04.843Z,13.17
2018-09-17T22:10:33.674Z,13.90
2018-09-17T22:13:02.532Z,14.20
2018-09-17T22:15:31.430Z,14.20
2018-09-17T22:18:00.245Z,15.23
2018-09-17T22:20:29.051Z,13.13
2018-09-17T22:22:57.819Z,13.73
2018-09-17T22:25:26.699Z,13.57
2018-09-17T22:27:55.504Z,13.80
2018-09-17T22:30:24.326Z,13.63
2018-09-17T22:32:53.118Z,13.53
2018-09-17T22:35:22.021Z,14.83
2018-09-17T22:37:50.830Z,13.87
2018-09-17T22:40:19.686Z,12.57
2018-09-17T22:42:48.498Z,12.53
2018-09-17T22:45:17.395Z,13.87
2018-09-17T22:47:46.267Z,13.90
2018-09-17T22:50:15.095Z,14.30
2018-09-17T22:52:43.929Z,14.20
2018-09-17T22:55:13.007Z,13.70
2018-09-17T22:57:41.787Z,12.37
2018-09-17T23:00:12.077Z,15.77
2018-09-17T23:02:41.792Z,14.63
2018-09-17T23:05:10.687Z,15.13
2018-09-17T23:07:39.508Z,13.67
2018-09-17T23:10:09.084Z,14.40
2018-09-17T23:12:37.876Z,12.60
2018-09-17T23:15:06.832Z,13.33
2018-09-17T23:17:35.678Z,13.57
2018-09-17T23:20:04.839Z,12.77
2018-09-17T23:22:33.643Z,15.33
2018-09-17T23:25:02.596Z,14.40
2018-09-17T23:27:31.399Z,13.47
2018-09-17T23:30:00.213Z,14.50
2018-09-17T23:32:29.010Z,13.80
2018-09-17T23:34:57.868Z,13.70
2018-09-17T23:37:26.690Z,13.70
2018-09-17T23:39:55.490Z,14.70
2018-09-17T23:42:24.318Z,14.60
2018-09-17T23:51:53.127Z,13.73
2018-09-17T23:54:21.934Z,13.30
2018-09-17T23:56:50.888Z,14.23
2018-09-17T23:59:27.027Z,14.23
